createdAt,value
2022-10-20T00:00:46.329Z,74.35
2022-10-20T00:02:18.065Z,74.14
2022-10-20T00:03:50.423Z,74.49
2022-10-20T00:05:22.130Z,74.50
2022-10-20T00:06:53.785Z,74.61
2022-10-20T00:08:25.428Z,74.07
2022-10-20T00:09:57.093Z,74.22
2022-10-20T00:11:29.929Z,74.47
2022-10-20T00:13:01.661Z,74.69
2022-10-20T00:14:33.381Z,74.65
2022-10-20T00:16:07.784Z,74.13
2022-10-20T00:17:39.492Z,73.89
2022-10-20T00:19:11.800Z,74.04
2022-10-20T00:20:43.807Z,74.30
2022-10-20T00:22:16.142Z,74.04
2022-10-20T00:23:48.102Z,74.64
2022-10-20T00:25:19.765Z,74.05
2022-10-20T00:26:51.502Z,73.73
2022-10-20T00:28:23.113Z,74.13
2022-10-20T00:29:54.774Z,74.10
2022-10-20T00:31:29.540Z,73.80
2022-10-20T00:33:02.943Z,74.25
2022-10-20T00:34:34.851Z,74.81
2022-10-20T00:36:09.530Z,74.85
2022-10-20T00:37:41.344Z,74.49
2022-10-20T00:39:13.264Z,74.26
2022-10-20T00:40:45.236Z,75.02
2022-10-20T00:42:17.644Z,74.73
2022-10-20T00:43:52.923Z,74.86
2022-10-20T00:45:25.060Z,75.36
2022-10-20T00:46:58.376Z,74.60
2022-10-20T00:48:31.568Z,74.82
2022-10-20T00:50:08.706Z,74.92
2022-10-20T00:51:40.579Z,74.64
2022-10-20T00:53:13.082Z,75.10
2022-10-20T00:54:44.931Z,74.57
2022-10-20T00:56:16.635Z,75.00
2022-10-20T00:57:51.630Z,75.01
2022-10-20T00:59:26.589Z,74.67
2022-10-20T01:00:59.926Z,74.72
2022-10-20T01:02:33.016Z,74.50
2022-10-20T01:04:05.032Z,74.39
2022-10-20T01:05:36.718Z,74.53
2022-10-20T01:07:08.561Z,74.22
2022-10-20T01:08:40.648Z,74.24
2022-10-20T01:10:13.286Z,74.13
2022-10-20T01:11:53.556Z,74.43
2022-10-20T01:13:35.462Z,74.63
2022-10-20T01:15:14.431Z,74.35
2022-10-20T01:16:58.573Z,74.09
2022-10-20T01:18:37.793Z,74.04
2022-10-20T01:20:37.709Z,74.15
2022-10-20T01:22:21.708Z,75.13
2022-10-20T01:24:05.429Z,74.66
2022-10-20T01:25:50.580Z,75.00
2022-10-20T01:27:34.782Z,74.82
2022-10-20T01:29:14.816Z,74.36
2022-10-20T01:30:50.037Z,75.03
2022-10-20T01:32:28.058Z,74.75
2022-10-20T01:34:08.497Z,74.59
2022-10-20T01:35:49.716Z,74.84
2022-10-20T01:37:47.899Z,74.97
2022-10-20T01:39:25.505Z,74.85
2022-10-20T01:41:03.328Z,74.98
2022-10-20T01:42:39.930Z,75.20
2022-10-20T01:44:15.445Z,74.86
2022-10-20T01:45:49.674Z,74.81
2022-10-20T01:47:24.488Z,74.60
2022-10-20T01:48:57.571Z,74.60
2022-10-20T01:50:29.894Z,74.78
2022-10-20T01:52:02.422Z,74.50
2022-10-20T01:53:34.111Z,75.13
2022-10-20T01:55:12.776Z,74.55
2022-10-20T01:56:54.409Z,74.40
2022-10-20T01:59:00.425Z,74.45
2022-10-20T02:00:35.270Z,74.66
2022-10-20T02:02:23.194Z,74.83
2022-10-20T02:03:58.121Z,74.50
2022-10-20T02:05:45.971Z,74.90
2022-10-20T02:07:25.003Z,74.46
2022-10-20T02:08:59.848Z,74.90
2022-10-20T02:10:36.999Z,74.45
2022-10-20T02:12:13.361Z,74.70
2022-10-20T02:13:47.123Z,74.99
2022-10-20T02:15:24.016Z,75.01
2022-10-20T02:16:59.240Z,75.31
2022-10-20T02:18:36.304Z,74.81
2022-10-20T02:20:10.101Z,75.25
2022-10-20T02:21:42.213Z,74.91
2022-10-20T02:23:14.317Z,74.42
2022-10-20T02:24:47.975Z,74.27
2022-10-20T02:26:23.352Z,74.10
2022-10-20T02:27:57.387Z,74.24
2022-10-20T02:29:36.537Z,74.69
2022-10-20T02:31:08.738Z,74.00
2022-10-20T02:32:43.212Z,74.73
2022-10-20T02:34:15.369Z,74.54
2022-10-20T02:35:54.042Z,74.17
2022-10-20T02:37:25.831Z,74.22
2022-10-20T02:38:57.680Z,74.37
2022-10-20T02:40:29.989Z,74.35
2022-10-20T02:42:01.701Z,74.47
2022-10-20T02:43:33.548Z,74.41
2022-10-20T02:45:08.259Z,73.74
2022-10-20T02:46:39.925Z,73.85
2022-10-20T02:48:12.090Z,73.86
2022-10-20T02:49:43.720Z,73.58
2022-10-20T02:51:17.367Z,73.60
2022-10-20T02:52:49.065Z,73.92
2022-10-20T02:54:21.480Z,73.95
2022-10-20T02:55:53.142Z,74.34
2022-10-20T02:57:24.855Z,73.82
2022-10-20T02:58:57.644Z,73.72
2022-10-20T03:00:31.674Z,73.52
2022-10-20T03:02:03.403Z,74.31
2022-10-20T03:03:35.060Z,73.53
2022-10-20T03:05:07.130Z,73.89
2022-10-20T03:06:39.097Z,73.81
2022-10-20T03:08:11.061Z,74.08
2022-10-20T03:09:44.412Z,73.86
2022-10-20T03:11:16.087Z,74.07
2022-10-20T03:12:47.783Z,73.82
2022-10-20T03:14:19.433Z,74.05
2022-10-20T03:15:52.747Z,74.19
2022-10-20T03:17:24.548Z,73.63
2022-10-20T03:18:59.962Z,73.52
2022-10-20T03:20:35.252Z,73.70
2022-10-20T03:22:07.472Z,73.82
2022-10-20T03:23:39.140Z,73.09
2022-10-20T03:25:10.721Z,74.07
2022-10-20T03:26:42.336Z,73.67
2022-10-20T03:28:13.947Z,74.08
2022-10-20T03:29:45.677Z,74.01
2022-10-20T03:31:18.727Z,73.29
2022-10-20T03:32:50.555Z,73.56
2022-10-20T03:34:22.336Z,73.61
2022-10-20T03:35:53.945Z,74.03
2022-10-20T03:37:25.554Z,72.92
2022-10-20T03:38:57.179Z,73.43
2022-10-20T03:40:28.861Z,73.49
2022-10-20T03:42:00.534Z,73.27
2022-10-20T03:43:32.218Z,73.90
2022-10-20T03:45:04.719Z,73.27
2022-10-20T03:46:37.735Z,73.08
2022-10-20T03:48:10.933Z,73.30
2022-10-20T03:49:42.667Z,73.64
2022-10-20T03:51:14.755Z,73.24
2022-10-20T03:52:47.643Z,72.76
2022-10-20T03:54:19.388Z,73.51
2022-10-20T03:55:51.209Z,72.66
2022-10-20T03:57:22.943Z,73.24
2022-10-20T03:58:54.618Z,73.47
2022-10-20T04:00:26.329Z,73.07
2022-10-20T04:01:59.386Z,73.06
2022-10-20T04:03:31.017Z,73.51
2022-10-20T04:05:03.574Z,73.28
2022-10-20T04:06:35.206Z,73.25
2022-10-20T04:08:07.026Z,73.52
2022-10-20T04:09:38.722Z,72.65
2022-10-20T04:11:10.358Z,72.69
2022-10-20T04:12:42.582Z,72.76
2022-10-20T04:14:14.408Z,73.34
2022-10-20T04:15:46.081Z,72.96
2022-10-20T04:17:19.252Z,73.35
2022-10-20T04:18:52.337Z,72.90
2022-10-20T04:20:24.115Z,72.83
2022-10-20T04:21:55.736Z,73.42
2022-10-20T04:23:27.498Z,72.75
2022-10-20T04:24:59.224Z,72.94
2022-10-20T04:26:31.004Z,73.57
2022-10-20T04:28:02.716Z,73.45
2022-10-20T04:29:34.641Z,72.72
2022-10-20T04:31:06.950Z,73.24
2022-10-20T04:32:39.979Z,72.73
2022-10-20T04:34:11.830Z,72.79
2022-10-20T04:35:43.614Z,72.95
2022-10-20T04:37:15.330Z,72.21
2022-10-20T04:38:46.948Z,71.88
2022-10-20T04:40:18.592Z,71.88
2022-10-20T04:41:50.309Z,72.04
2022-10-20T04:43:22.317Z,72.29
2022-10-20T04:44:53.999Z,72.15
2022-10-20T04:46:26.740Z,71.70
2022-10-20T04:47:59.722Z,71.92
2022-10-20T04:49:31.374Z,72.25
2022-10-20T04:51:05.006Z,71.78
2022-10-20T04:52:36.670Z,71.50
2022-10-20T04:54:08.398Z,71.80
2022-10-20T04:55:40.112Z,71.89
2022-10-20T04:57:11.762Z,72.18
2022-10-20T04:58:46.502Z,72.23
2022-10-20T05:00:18.375Z,71.41
2022-10-20T05:01:50.065Z,71.67
2022-10-20T05:03:23.174Z,71.34
2022-10-20T05:04:54.810Z,71.52
2022-10-20T05:06:28.228Z,71.66
2022-10-20T05:07:59.889Z,71.88
2022-10-20T05:09:32.837Z,71.40
2022-10-20T05:11:05.881Z,72.24
2022-10-20T05:12:37.879Z,72.01
2022-10-20T05:14:09.895Z,72.30
2022-10-20T05:15:41.585Z,71.75
2022-10-20T05:17:13.282Z,72.61
2022-10-20T05:18:48.394Z,72.38
2022-10-20T05:20:20.014Z,71.71
2022-10-20T05:21:51.716Z,72.14
2022-10-20T05:23:23.392Z,72.27
2022-10-20T05:24:55.361Z,71.65
2022-10-20T05:26:28.333Z,72.11
2022-10-20T05:28:00.302Z,71.52
2022-10-20T05:29:31.972Z,71.61
2022-10-20T05:31:04.719Z,72.02
2022-10-20T05:32:36.673Z,72.30
2022-10-20T05:34:11.110Z,72.21
2022-10-20T05:35:42.788Z,72.22
2022-10-20T05:37:14.407Z,72.17
2022-10-20T05:38:46.741Z,72.04
2022-10-20T05:40:18.662Z,71.93
2022-10-20T05:41:50.288Z,71.50
2022-10-20T05:43:21.936Z,71.43
2022-10-20T05:44:53.970Z,71.85
2022-10-20T05:46:26.898Z,71.36
2022-10-20T05:47:58.592Z,71.95
2022-10-20T05:49:31.733Z,72.04
2022-10-20T05:51:13.615Z,72.00
2022-10-20T05:52:46.698Z,71.72
2022-10-20T05:54:18.555Z,71.63
2022-10-20T05:55:50.186Z,71.12
2022-10-20T05:57:22.032Z,71.80
2022-10-20T05:58:53.906Z,72.03
2022-10-20T06:00:30.870Z,71.85
2022-10-20T06:02:02.697Z,71.47
2022-10-20T06:03:34.526Z,71.68
2022-10-20T06:05:07.806Z,71.72
2022-10-20T06:06:39.433Z,72.09
2022-10-20T06:08:11.349Z,71.90
2022-10-20T06:09:42.994Z,72.08
2022-10-20T06:11:15.733Z,72.03
2022-10-20T06:12:47.348Z,72.04
2022-10-20T06:14:22.293Z,72.03
2022-10-20T06:15:53.915Z,71.60
2022-10-20T06:17:26.621Z,71.73
2022-10-20T06:18:59.349Z,71.45
2022-10-20T06:20:32.469Z,71.64
2022-10-20T06:22:06.749Z,71.11
2022-10-20T06:23:38.827Z,71.03
2022-10-20T06:25:10.446Z,71.76
2022-10-20T06:26:42.989Z,71.23
2022-10-20T06:28:14.669Z,71.67
2022-10-20T06:29:46.394Z,70.88
2022-10-20T06:31:19.419Z,70.96
2022-10-20T06:32:54.030Z,71.16
2022-10-20T06:34:26.130Z,71.18
2022-10-20T06:36:02.049Z,71.52
2022-10-20T06:37:33.845Z,71.43
2022-10-20T06:39:07.139Z,71.36
2022-10-20T06:40:39.359Z,70.84
2022-10-20T06:42:12.211Z,70.82
2022-10-20T06:43:50.087Z,70.66
2022-10-20T06:45:21.952Z,70.59
2022-10-20T06:46:55.060Z,70.57
2022-10-20T06:48:27.318Z,71.09
2022-10-20T06:49:58.936Z,70.68
2022-10-20T06:51:33.235Z,70.35
2022-10-20T06:53:04.969Z,70.67
2022-10-20T06:54:36.630Z,70.35
2022-10-20T06:56:11.102Z,70.50
2022-10-20T06:57:42.720Z,70.30
2022-10-20T06:59:14.334Z,70.57
2022-10-20T07:00:46.017Z,70.59
2022-10-20T07:02:17.809Z,71.21
2022-10-20T07:03:53.059Z,71.07
2022-10-20T07:05:24.802Z,71.27
2022-10-20T07:06:57.819Z,71.27
2022-10-20T07:08:31.149Z,71.00
2022-10-20T07:10:02.931Z,71.29
2022-10-20T07:11:35.428Z,70.85
2022-10-20T07:13:07.099Z,70.65
2022-10-20T07:14:38.742Z,70.71
2022-10-20T07:16:13.374Z,70.77
2022-10-20T07:17:45.001Z,71.02
2022-10-20T07:19:16.686Z,70.50
2022-10-20T07:20:48.448Z,70.06
2022-10-20T07:22:21.448Z,70.51
2022-10-20T07:23:56.150Z,70.46
2022-10-20T07:25:27.866Z,70.22
2022-10-20T07:26:59.703Z,70.37
2022-10-20T07:28:31.572Z,70.14
2022-10-20T07:30:04.610Z,70.23
2022-10-20T07:31:38.114Z,70.10
2022-10-20T07:33:10.106Z,70.28
2022-10-20T07:34:41.762Z,70.35
2022-10-20T07:36:15.395Z,70.58
2022-10-20T07:37:48.456Z,70.34
2022-10-20T07:39:20.191Z,70.37
2022-10-20T07:40:52.043Z,70.30
2022-10-20T07:42:23.791Z,70.16
2022-10-20T07:43:56.054Z,70.19
2022-10-20T07:45:27.720Z,70.49
2022-10-20T07:46:59.375Z,70.50
2022-10-20T07:48:33.105Z,70.54
2022-10-20T07:50:05.244Z,70.38
2022-10-20T07:51:36.973Z,70.08
2022-10-20T07:53:09.978Z,70.13
2022-10-20T07:54:41.701Z,70.29
2022-10-20T07:56:13.787Z,69.73
2022-10-20T07:57:45.535Z,69.92
2022-10-20T07:59:17.519Z,69.63
2022-10-20T08:00:49.181Z,69.72
2022-10-20T08:02:20.869Z,69.50
2022-10-20T08:03:52.702Z,69.33
2022-10-20T08:05:24.381Z,69.35
2022-10-20T08:06:56.129Z,69.69
2022-10-20T08:08:29.281Z,69.53
2022-10-20T08:10:00.978Z,69.42
2022-10-20T08:11:32.644Z,69.08
2022-10-20T08:13:04.448Z,69.17
2022-10-20T08:14:37.816Z,69.08
2022-10-20T08:16:13.615Z,69.09
2022-10-20T08:17:45.280Z,69.10
2022-10-20T08:21:10.423Z,68.35
2022-10-20T08:22:42.119Z,68.14
2022-10-20T08:24:15.141Z,68.16
2022-10-20T08:25:46.842Z,67.82
2022-10-20T08:27:18.542Z,67.93
2022-10-20T08:28:52.381Z,68.10
2022-10-20T08:30:24.536Z,67.76
2022-10-20T08:31:56.427Z,67.62
2022-10-20T08:33:28.139Z,67.83
2022-10-20T08:34:59.804Z,67.73
2022-10-20T08:36:31.771Z,67.72
2022-10-20T08:38:05.903Z,67.86
2022-10-20T08:39:38.897Z,67.40
2022-10-20T08:41:16.623Z,67.37
2022-10-20T08:42:49.317Z,67.19
2022-10-20T08:44:25.221Z,67.04
2022-10-20T08:45:57.203Z,67.35
2022-10-20T08:47:35.150Z,67.15
2022-10-20T08:49:21.424Z,67.33
2022-10-20T08:50:54.122Z,67.40
2022-10-20T08:52:27.056Z,67.21
2022-10-20T08:54:01.955Z,67.23
2022-10-20T08:55:35.042Z,66.92
2022-10-20T08:57:21.192Z,66.62
2022-10-20T08:58:53.094Z,66.76
2022-10-20T09:00:25.503Z,66.91
2022-10-20T09:01:57.818Z,67.20
2022-10-20T09:03:31.522Z,66.85
2022-10-20T09:05:06.389Z,66.55
2022-10-20T09:06:41.842Z,66.65
2022-10-20T09:08:13.490Z,66.56
2022-10-20T09:09:45.752Z,66.67
2022-10-20T09:11:23.272Z,66.14
2022-10-20T09:12:55.504Z,66.14
2022-10-20T09:14:30.844Z,66.02
2022-10-20T09:16:06.245Z,66.04
2022-10-20T09:17:40.769Z,65.90
2022-10-20T09:19:16.781Z,65.54
2022-10-20T09:20:53.586Z,65.80
2022-10-20T09:22:33.371Z,65.51
2022-10-20T09:24:07.599Z,65.40
2022-10-20T09:25:42.047Z,65.38
2022-10-20T09:27:23.962Z,64.92
2022-10-20T09:29:12.923Z,64.58
2022-10-20T09:30:45.727Z,64.84
2022-10-20T09:34:25.949Z,64.52
2022-10-20T09:36:11.376Z,64.79
2022-10-20T09:37:53.983Z,65.01
2022-10-20T09:39:28.953Z,65.47
2022-10-20T09:41:10.272Z,65.29
2022-10-20T09:42:49.498Z,65.59
2022-10-20T09:44:24.370Z,65.67
2022-10-20T09:45:59.996Z,65.32
2022-10-20T09:47:34.992Z,65.87
2022-10-20T09:49:07.641Z,65.72
2022-10-20T09:50:40.629Z,66.01
2022-10-20T09:52:20.045Z,66.26
2022-10-20T09:53:55.363Z,66.21
2022-10-20T09:55:30.010Z,65.70
2022-10-20T09:57:07.460Z,65.93
2022-10-20T09:58:42.587Z,65.89
2022-10-20T10:00:36.379Z,66.22
2022-10-20T10:02:28.222Z,66.89
2022-10-20T10:04:01.953Z,67.02
2022-10-20T10:05:33.873Z,67.26
2022-10-20T10:07:26.433Z,67.09
2022-10-20T10:09:00.982Z,67.30
2022-10-20T10:10:32.747Z,67.22
2022-10-20T10:12:15.222Z,67.17
2022-10-20T10:13:49.910Z,67.56
2022-10-20T10:15:28.500Z,68.05
2022-10-20T10:17:01.052Z,68.17
2022-10-20T10:18:34.411Z,68.03
2022-10-20T10:20:25.681Z,68.26
2022-10-20T10:21:59.817Z,67.93
2022-10-20T10:23:33.974Z,68.10
2022-10-20T10:25:16.833Z,67.57
2022-10-20T10:26:53.957Z,67.37
2022-10-20T10:28:43.574Z,67.63
2022-10-20T10:30:30.051Z,67.39
2022-10-20T10:32:04.027Z,66.96
2022-10-20T10:33:35.650Z,66.54
2022-10-20T10:35:19.890Z,66.21
2022-10-20T10:36:51.509Z,65.94
2022-10-20T10:38:23.254Z,66.64
2022-10-20T10:39:55.107Z,66.31
2022-10-20T10:41:41.667Z,66.06
2022-10-20T10:43:30.708Z,66.38
2022-10-20T10:45:12.175Z,67.07
2022-10-20T10:46:54.205Z,67.40
2022-10-20T10:48:55.798Z,67.17
2022-10-20T10:50:34.128Z,67.47
2022-10-20T10:52:18.036Z,68.03
2022-10-20T10:53:59.926Z,68.16
2022-10-20T10:55:48.216Z,68.74
2022-10-20T10:57:30.074Z,69.13
2022-10-20T10:59:06.627Z,69.19
2022-10-20T11:00:48.222Z,69.70
2022-10-20T11:02:46.440Z,69.89
2022-10-20T11:04:46.693Z,70.08
2022-10-20T11:06:25.519Z,69.72
2022-10-20T11:08:10.607Z,70.11
2022-10-20T11:09:54.729Z,70.35
2022-10-20T11:11:41.323Z,71.13
2022-10-20T11:13:28.180Z,71.32
2022-10-20T11:15:16.392Z,71.52
2022-10-20T11:16:59.741Z,72.20
2022-10-20T11:19:01.130Z,72.56
2022-10-20T11:20:41.263Z,73.21
2022-10-20T11:22:23.014Z,73.61
2022-10-20T11:24:07.105Z,73.96
2022-10-20T11:25:46.403Z,74.50
2022-10-20T11:27:23.808Z,74.51
2022-10-20T11:28:58.659Z,75.06
2022-10-20T11:30:33.883Z,75.11
2022-10-20T11:32:11.894Z,75.82
2022-10-20T11:33:45.909Z,75.65
2022-10-20T11:35:28.776Z,76.19
2022-10-20T11:37:06.310Z,76.28
2022-10-20T11:38:42.447Z,76.43
2022-10-20T11:40:22.271Z,76.59
2022-10-20T11:42:00.889Z,76.55
2022-10-20T11:43:36.923Z,76.96
2022-10-20T11:45:38.090Z,76.95
2022-10-20T11:47:13.212Z,77.18
2022-10-20T11:48:50.048Z,77.27
2022-10-20T11:50:21.715Z,77.61
2022-10-20T11:52:26.627Z,77.77
2022-10-20T11:54:14.257Z,78.11
2022-10-20T11:56:12.089Z,78.18
2022-10-20T11:57:58.971Z,78.48
2022-10-20T11:59:53.207Z,78.54
2022-10-20T12:01:33.911Z,78.79
2022-10-20T12:03:38.373Z,79.35
2022-10-20T12:05:25.423Z,79.63
2022-10-20T12:07:16.117Z,79.88
2022-10-20T12:09:11.755Z,79.76
2022-10-20T12:10:51.281Z,79.99
2022-10-20T12:12:30.844Z,79.86
2022-10-20T12:14:11.570Z,80.04
2022-10-20T12:15:48.581Z,79.79
2022-10-20T12:17:29.851Z,79.88
2022-10-20T12:19:16.511Z,79.34
2022-10-20T12:20:51.052Z,79.54
2022-10-20T12:22:42.102Z,79.43
2022-10-20T12:24:30.101Z,79.92
2022-10-20T12:26:01.762Z,79.85
2022-10-20T12:27:33.374Z,79.78
2022-10-20T12:29:40.475Z,79.70
2022-10-20T12:31:12.160Z,79.67
2022-10-20T12:33:15.332Z,79.85
2022-10-20T12:34:47.793Z,80.10
2022-10-20T12:36:32.406Z,79.76
2022-10-20T12:38:05.327Z,79.13
2022-10-20T12:39:37.131Z,78.90
2022-10-20T12:41:09.825Z,78.52
2022-10-20T12:42:47.989Z,78.69
2022-10-20T12:44:21.236Z,78.22
2022-10-20T12:45:58.400Z,78.54
2022-10-20T12:47:32.830Z,78.75
2022-10-20T12:49:11.085Z,78.50
2022-10-20T12:50:46.944Z,78.43
2022-10-20T12:52:23.306Z,78.75
2022-10-20T12:53:59.959Z,78.96
2022-10-20T12:55:41.073Z,78.83
2022-10-20T12:57:31.003Z,79.03
2022-10-20T12:59:24.259Z,78.92
2022-10-20T13:01:09.303Z,78.79
2022-10-20T13:02:51.078Z,78.90
2022-10-20T13:04:58.116Z,79.00
2022-10-20T13:06:43.633Z,78.65
2022-10-20T13:08:30.939Z,78.93
2022-10-20T13:10:04.385Z,78.36
2022-10-20T13:11:45.914Z,78.43
2022-10-20T13:13:45.474Z,78.46
2022-10-20T13:15:21.158Z,78.45
2022-10-20T13:17:01.626Z,78.34
2022-10-20T13:18:38.396Z,78.58
2022-10-20T13:20:24.985Z,78.35
2022-10-20T13:21:57.178Z,78.76
2022-10-20T13:23:33.803Z,78.28
2022-10-20T13:25:14.180Z,78.65
2022-10-20T13:26:49.374Z,78.61
2022-10-20T13:28:23.897Z,78.60
2022-10-20T13:29:55.882Z,78.48
2022-10-20T13:31:32.865Z,78.50
2022-10-20T13:33:38.691Z,78.58
2022-10-20T13:35:17.823Z,78.21
2022-10-20T13:37:05.586Z,78.11
2022-10-20T13:38:44.307Z,78.22
2022-10-20T13:40:24.342Z,78.61
2022-10-20T13:42:05.417Z,78.82
2022-10-20T13:43:46.751Z,78.36
2022-10-20T13:45:27.577Z,77.60
2022-10-20T13:47:09.542Z,77.60
2022-10-20T13:48:53.708Z,77.37
2022-10-20T13:50:29.841Z,77.09
2022-10-20T13:52:06.064Z,77.64
2022-10-20T13:53:41.385Z,77.65
2022-10-20T13:55:18.071Z,77.82
2022-10-20T13:56:50.430Z,77.62
2022-10-20T13:58:23.608Z,77.56
2022-10-20T13:59:56.678Z,78.02
2022-10-20T14:01:29.873Z,77.71
2022-10-20T14:03:03.302Z,76.92
2022-10-20T14:04:36.833Z,76.94
2022-10-20T14:06:29.806Z,76.90
2022-10-20T14:08:08.343Z,76.63
2022-10-20T14:09:45.257Z,76.92
2022-10-20T14:11:19.407Z,76.75
2022-10-20T14:12:52.736Z,76.56
2022-10-20T14:14:27.527Z,76.35
2022-10-20T14:16:00.827Z,76.22
2022-10-20T14:17:35.375Z,76.56
2022-10-20T14:19:12.639Z,76.57
2022-10-20T14:20:54.456Z,76.41
2022-10-20T14:22:26.188Z,76.76
2022-10-20T14:24:03.086Z,76.60
2022-10-20T14:25:36.426Z,76.43
2022-10-20T14:27:18.591Z,76.72
2022-10-20T14:28:52.006Z,76.81
2022-10-20T14:30:24.609Z,77.15
2022-10-20T14:31:57.126Z,77.14
2022-10-20T14:33:30.042Z,77.14
2022-10-20T14:35:14.399Z,77.42
2022-10-20T14:36:46.570Z,77.62
2022-10-20T14:38:20.678Z,77.20
2022-10-20T14:39:53.752Z,77.31
2022-10-20T14:41:27.643Z,77.07
2022-10-20T14:43:02.260Z,77.40
2022-10-20T14:44:36.047Z,77.45
2022-10-20T14:46:10.229Z,78.15
2022-10-20T14:47:42.311Z,78.08
2022-10-20T14:49:16.373Z,77.98
2022-10-20T14:50:49.147Z,78.38
2022-10-20T14:52:22.657Z,77.92
2022-10-20T14:54:13.765Z,78.39
2022-10-20T14:55:46.921Z,77.97
2022-10-20T14:57:46.737Z,77.92
2022-10-20T14:59:20.321Z,78.07
2022-10-20T15:00:51.976Z,77.88
2022-10-20T15:02:26.897Z,78.30
2022-10-20T15:05:41.861Z,78.19
2022-10-20T15:07:16.445Z,78.54
2022-10-20T15:08:57.593Z,78.40
2022-10-20T15:10:30.810Z,78.03
2022-10-20T15:12:08.429Z,78.37
2022-10-20T15:13:40.469Z,78.36
2022-10-20T15:15:21.047Z,77.99
2022-10-20T15:16:52.806Z,78.25
2022-10-20T15:18:24.935Z,78.31
2022-10-20T15:19:56.601Z,78.26
2022-10-20T15:21:28.389Z,78.19
2022-10-20T15:23:02.680Z,78.50
2022-10-20T15:24:34.609Z,78.33
2022-10-20T15:26:10.354Z,78.26
2022-10-20T15:27:43.719Z,78.05
2022-10-20T15:29:15.387Z,77.83
2022-10-20T15:30:47.155Z,77.69
2022-10-20T15:32:18.869Z,77.79
2022-10-20T15:33:53.683Z,77.60
2022-10-20T15:35:25.668Z,77.85
2022-10-20T15:36:57.366Z,77.99
2022-10-20T15:38:29.053Z,77.62
2022-10-20T15:40:00.739Z,77.89
2022-10-20T15:41:34.630Z,77.59
2022-10-20T15:43:11.476Z,77.51
2022-10-20T15:44:43.084Z,77.98
2022-10-20T15:46:16.592Z,78.06
2022-10-20T15:47:48.311Z,78.05
2022-10-20T15:49:20.959Z,78.21
2022-10-20T15:50:53.287Z,78.61
2022-10-20T15:52:24.939Z,78.47
2022-10-20T15:53:59.389Z,78.81
2022-10-20T15:55:33.718Z,78.39
2022-10-20T15:57:05.374Z,78.79
2022-10-20T15:58:39.811Z,78.72
2022-10-20T16:00:14.337Z,78.76
2022-10-20T16:01:46.077Z,78.48
2022-10-20T16:03:18.777Z,78.93
2022-10-20T16:04:50.399Z,78.90
2022-10-20T16:06:22.164Z,78.73
2022-10-20T16:07:55.026Z,79.35
2022-10-20T16:09:26.713Z,78.74
2022-10-20T16:10:58.593Z,78.98
2022-10-20T16:12:30.221Z,79.18
2022-10-20T16:14:03.179Z,79.27
2022-10-20T16:15:34.951Z,79.09
2022-10-20T16:17:06.563Z,79.39
2022-10-20T16:18:38.300Z,79.08
2022-10-20T16:20:10.423Z,79.27
2022-10-20T16:21:42.107Z,79.62
2022-10-20T16:23:13.746Z,79.66
2022-10-20T16:24:46.701Z,80.18
2022-10-20T16:26:18.559Z,80.14
2022-10-20T16:27:50.278Z,80.26
2022-10-20T16:29:23.323Z,80.24
2022-10-20T16:31:01.711Z,80.27
2022-10-20T16:32:35.390Z,80.27
2022-10-20T16:34:07.203Z,80.31
2022-10-20T16:35:42.026Z,80.39
2022-10-20T16:37:13.702Z,80.54
2022-10-20T16:38:45.443Z,81.18
2022-10-20T16:40:18.261Z,81.10
2022-10-20T16:41:49.966Z,80.79
2022-10-20T16:43:23.898Z,81.33
2022-10-20T16:44:57.353Z,81.02
2022-10-20T16:46:29.000Z,80.98
2022-10-20T16:48:00.626Z,81.07
2022-10-20T16:49:32.308Z,80.88
2022-10-20T16:51:06.141Z,80.51
2022-10-20T16:52:37.775Z,80.66
2022-10-20T16:54:09.480Z,80.92
2022-10-20T16:55:50.157Z,80.90
2022-10-20T16:57:21.901Z,81.14
2022-10-20T16:58:53.666Z,81.46
2022-10-20T17:00:26.770Z,81.41
2022-10-20T17:01:58.441Z,81.65
2022-10-20T17:03:30.540Z,81.72
2022-10-20T17:05:05.311Z,81.75
2022-10-20T17:06:40.195Z,81.63
2022-10-20T17:08:11.858Z,81.79
2022-10-20T17:09:43.798Z,81.82
2022-10-20T17:11:17.446Z,82.20
2022-10-20T17:14:21.754Z,81.83
2022-10-20T17:15:54.999Z,81.86
2022-10-20T17:17:26.758Z,81.89
2022-10-20T17:18:59.788Z,81.85
2022-10-20T17:20:31.412Z,81.93
2022-10-20T17:22:03.156Z,82.07
2022-10-20T17:23:40.065Z,82.66
2022-10-20T17:25:14.456Z,82.12
2022-10-20T17:26:46.124Z,82.13
2022-10-20T17:28:18.209Z,82.55
2022-10-20T17:29:49.888Z,82.66
2022-10-20T17:31:23.027Z,82.67
2022-10-20T17:32:54.754Z,82.28
2022-10-20T17:34:26.434Z,82.16
2022-10-20T17:35:59.280Z,82.43
2022-10-20T17:37:31.174Z,82.39
2022-10-20T17:39:06.116Z,82.41
2022-10-20T17:40:38.459Z,82.62
2022-10-20T17:42:10.142Z,82.50
2022-10-20T17:43:42.086Z,82.79
2022-10-20T17:45:14.141Z,82.72
2022-10-20T17:46:47.152Z,82.57
2022-10-20T17:48:18.848Z,82.70
2022-10-20T17:49:50.540Z,82.49
2022-10-20T17:51:24.089Z,82.70
2022-10-20T17:52:55.748Z,82.60
2022-10-20T17:54:27.444Z,82.77
2022-10-20T17:56:01.320Z,82.69
2022-10-20T17:57:34.145Z,82.50
2022-10-20T17:59:08.350Z,82.56
2022-10-20T18:00:55.641Z,82.34
2022-10-20T18:02:29.867Z,82.61
2022-10-20T18:04:03.538Z,83.07
2022-10-20T18:05:35.806Z,82.83
2022-10-20T18:07:07.468Z,82.87
2022-10-20T18:08:39.615Z,83.19
2022-10-20T18:10:11.976Z,83.33
2022-10-20T18:11:45.777Z,83.11
2022-10-20T18:13:17.417Z,83.37
2022-10-20T18:14:49.130Z,83.47
2022-10-20T18:16:21.577Z,83.64
2022-10-20T18:17:54.586Z,83.66
2022-10-20T18:19:26.285Z,83.70
2022-10-20T18:20:57.953Z,83.55
2022-10-20T18:22:29.626Z,83.79
2022-10-20T18:24:03.208Z,83.77
2022-10-20T18:25:35.078Z,83.70
2022-10-20T18:27:06.789Z,83.52
2022-10-20T18:28:40.219Z,83.59
2022-10-20T18:30:13.698Z,83.61
2022-10-20T18:31:46.690Z,83.82
2022-10-20T18:33:19.765Z,84.06
2022-10-20T18:34:51.493Z,83.94
2022-10-20T18:36:24.809Z,83.98
2022-10-20T18:37:57.601Z,83.94
2022-10-20T18:39:31.684Z,83.79
2022-10-20T18:41:04.778Z,83.95
2022-10-20T18:42:36.528Z,83.84
2022-10-20T18:44:11.765Z,83.78
2022-10-20T18:45:50.833Z,84.15
2022-10-20T18:47:22.515Z,84.25
2022-10-20T18:48:56.339Z,84.03
2022-10-20T18:50:28.031Z,83.98
2022-10-20T18:51:59.829Z,84.00
2022-10-20T18:53:32.809Z,83.98
2022-10-20T18:55:04.927Z,84.06
2022-10-20T18:56:36.924Z,84.31
2022-10-20T18:58:08.555Z,84.26
2022-10-20T18:59:40.322Z,84.35
2022-10-20T19:01:13.921Z,84.45
2022-10-20T19:02:50.184Z,84.31
2022-10-20T19:04:23.228Z,84.56
2022-10-20T19:05:58.933Z,84.61
2022-10-20T19:07:32.257Z,84.47
2022-10-20T19:09:06.330Z,84.33
2022-10-20T19:10:41.745Z,84.39
2022-10-20T19:12:13.466Z,84.51
2022-10-20T19:13:45.498Z,84.37
2022-10-20T19:15:18.327Z,84.45
2022-10-20T19:16:50.179Z,84.73
2022-10-20T19:18:22.657Z,84.71
2022-10-20T19:19:55.675Z,84.71
2022-10-20T19:21:28.907Z,85.01
2022-10-20T19:23:00.841Z,84.33
2022-10-20T19:24:32.512Z,84.38
2022-10-20T19:26:07.012Z,84.47
2022-10-20T19:27:38.696Z,84.21
2022-10-20T19:29:13.465Z,83.89
2022-10-20T19:30:45.134Z,84.11
2022-10-20T19:32:16.927Z,84.06
2022-10-20T19:33:50.817Z,84.25
2022-10-20T19:35:24.163Z,83.76
2022-10-20T19:36:56.802Z,83.63
2022-10-20T19:38:28.470Z,83.90
2022-10-20T19:40:00.140Z,83.47
2022-10-20T19:41:31.784Z,83.90
2022-10-20T19:43:06.175Z,83.75
2022-10-20T19:44:38.447Z,83.89
2022-10-20T19:46:14.001Z,84.00
2022-10-20T19:47:45.710Z,84.03
2022-10-20T19:49:18.211Z,84.42
2022-10-20T19:50:51.367Z,84.59
2022-10-20T19:52:23.042Z,84.66
2022-10-20T19:53:54.709Z,84.73
2022-10-20T19:55:26.512Z,84.75
2022-10-20T19:56:58.251Z,84.64
2022-10-20T19:58:29.968Z,84.61
2022-10-20T20:00:01.688Z,84.98
2022-10-20T20:01:36.401Z,84.69
2022-10-20T20:03:08.365Z,84.71
2022-10-20T20:04:40.402Z,84.98
2022-10-20T20:06:16.467Z,84.99
2022-10-20T20:07:48.215Z,85.16
2022-10-20T20:09:20.011Z,85.10
2022-10-20T20:10:52.572Z,85.18
2022-10-20T20:12:24.333Z,85.24
2022-10-20T20:13:58.700Z,84.91
2022-10-20T20:15:30.436Z,85.10
2022-10-20T20:17:02.470Z,85.16
2022-10-20T20:18:35.663Z,85.69
2022-10-20T20:20:07.581Z,85.66
2022-10-20T20:21:40.631Z,85.80
2022-10-20T20:23:14.374Z,85.52
2022-10-20T20:24:46.047Z,85.50
2022-10-20T20:26:17.713Z,85.67
2022-10-20T20:27:49.363Z,85.57
2022-10-20T20:29:21.064Z,85.90
2022-10-20T20:30:59.608Z,86.06
2022-10-20T20:32:32.206Z,86.19